sensor_id;sensor_type;location;lat;lon;timestamp;pressure;altitude;pressure_sealevel;temperature;humidity
10646;BME280;5371;49.782;9.932;2023-02-14T00:00:31;101699.47;;;0.82;100.00
10646;BME280;5371;49.782;9.932;2023-02-14T00:02:58;101707.38;;;0.96;100.00
10646;BME280;5371;49.782;9.932;2023-02-14T00:05:25;101704.66;;;0.84;100.00
10646;BME280;5371;49.782;9.932;2023-02-14T00:07:52;101709.16;;;1.01;100.00
10646;BME280;5371;49.782;9.932;2023-02-14T00:10:21;101705.66;;;0.96;100.00
10646;BME280;5371;49.782;9.932;2023-02-14T00:12:48;101700.44;;;0.92;100.00
10646;BME280;5371;49.782;9.932;2023-02-14T00:15:15;101707.28;;;0.87;100.00
10646;BME280;5371;49.782;9.932;2023-02-14T00:17:47;101697.00;;;0.88;100.00
10646;BME280;5371;49.782;9.932;2023-02-14T00:20:14;101700.50;;;0.95;100.00
10646;BME280;5371;49.782;9.932;2023-02-14T00:22:41;101696.91;;;0.81;100.00
10646;BME280;5371;49.782;9.932;2023-02-14T00:25:08;101699.47;;;0.82;100.00
10646;BME280;5371;49.782;9.932;2023-02-14T00:27:37;101699.69;;;1.00;100.00
10646;BME280;5371;49.782;9.932;2023-02-14T00:30:06;101697.09;;;0.96;100.00
10646;BME280;5371;49.782;9.932;2023-02-14T00:32:33;101692.78;;;0.95;100.00
10646;BME280;5371;49.782;9.932;2023-02-14T00:35:02;101703.25;;;1.08;100.00
10646;BME280;5371;49.782;9.932;2023-02-14T00:37:31;101703.03;;;0.90;100.00
10646;BME280;5371;49.782;9.932;2023-02-14T00:39:58;101699.41;;;0.76;100.00
10646;BME280;5371;49.782;9.932;2023-02-14T00:42:25;101709.94;;;0.94;100.00
10646;BME280;5371;49.782;9.932;2023-02-14T00:44:54;101707.38;;;0.96;100.00
10646;BME280;5371;49.782;9.932;2023-02-14T00:47:21;101708.25;;;0.96;100.00
10646;BME280;5371;49.782;9.932;2023-02-14T00:49:48;101702.28;;;1.02;100.00
10646;BME280;5371;49.782;9.932;2023-02-14T00:52:15;101702.38;;;1.08;100.00
10646;BME280;5371;49.782;9.932;2023-02-14T00:54:42;101702.16;;;0.91;100.00
10646;BME280;5371;49.782;9.932;2023-02-14T00:57:09;101699.75;;;1.03;100.00
10646;BME280;5371;49.782;9.932;2023-02-14T00:59:36;101708.13;;;0.87;100.00
10646;BME280;5371;49.782;9.932;2023-02-14T01:02:04;101707.09;;;0.74;100.00
10646;BME280;5371;49.782;9.932;2023-02-14T01:04:31;101706.19;;;0.69;100.00
10646;BME280;5371;49.782;9.932;2023-02-14T01:06:58;101705.66;;;0.96;100.00
10646;BME280;5371;49.782;9.932;2023-02-14T01:09:25;101710.75;;;0.92;100.00
10646;BME280;5371;49.782;9.932;2023-02-14T01:11:52;101703.09;;;0.96;100.00
10646;BME280;5371;49.782;9.932;2023-02-14T01:14:19;101712.50;;;0.94;100.00
10646;BME280;5371;49.782;9.932;2023-02-14T01:16:45;101704.81;;;0.96;100.00
10646;BME280;5371;49.782;9.932;2023-02-14T01:19:14;101705.59;;;0.89;100.00
10646;BME280;5371;49.782;9.932;2023-02-14T01:21:42;101704.63;;;0.81;100.00
10646;BME280;5371;49.782;9.932;2023-02-14T01:24:11;101710.00;;;0.99;100.00
10646;BME280;5371;49.782;9.932;2023-02-14T01:26:40;101710.84;;;0.98;100.00
10646;BME280;5371;49.782;9.932;2023-02-14T01:29:08;101705.72;;;1.01;100.00
10646;BME280;5371;49.782;9.932;2023-02-14T01:31:35;101709.22;;;1.04;100.00
10646;BME280;5371;49.782;9.932;2023-02-14T01:34:02;101710.09;;;1.09;100.00
10646;BME280;5371;49.782;9.932;2023-02-14T01:36:32;101716.06;;;1.04;100.00
10646;BME280;5371;49.782;9.932;2023-02-14T01:39:03;101713.63;;;0.50;100.00
10646;BME280;5371;49.782;9.932;2023-02-14T01:41:31;101706.22;;;0.71;100.00
10646;BME280;5371;49.782;9.932;2023-02-14T01:44:00;101701.09;;;0.75;100.00
10646;BME280;5371;49.782;9.932;2023-02-14T01:46:29;101697.13;;;0.99;100.00
10646;BME280;5371;49.782;9.932;2023-02-14T01:49:00;101697.53;;;0.63;100.00
10646;BME280;5371;49.782;9.932;2023-02-14T01:51:30;101702.81;;;0.75;100.00
10646;BME280;5371;49.782;9.932;2023-02-14T01:53:58;101701.31;;;0.92;100.00
10646;BME280;5371;49.782;9.932;2023-02-14T01:56:29;101700.38;;;0.86;100.00
10646;BME280;5371;49.782;9.932;2023-02-14T01:59:01;101697.78;;;0.81;100.00
10646;BME280;5371;49.782;9.932;2023-02-14T02:01:30;101708.28;;;0.98;100.00
10646;BME280;5371;49.782;9.932;2023-02-14T02:04:02;101703.16;;;0.99;100.00
10646;BME280;5371;49.782;9.932;2023-02-14T02:06:36;101704.13;;;1.10;100.00
10646;BME280;5371;49.782;9.932;2023-02-14T02:09:10;101696.38;;;1.10;100.00
10646;BME280;5371;49.782;9.932;2023-02-14T02:11:39;101704.91;;;1.05;100.00
10646;BME280;5371;49.782;9.932;2023-02-14T02:14:11;101696.25;;;0.97;100.00
10646;BME280;5371;49.782;9.932;2023-02-14T02:25:47;101686.53;;;0.76;100.00
10646;BME280;5371;49.782;9.932;2023-02-14T02:28:55;101683.31;;;0.91;100.00
10646;BME280;5371;49.782;9.932;2023-02-14T02:31:41;101681.53;;;0.88;100.00
10646;BME280;5371;49.782;9.932;2023-02-14T02:34:33;101687.97;;;0.54;100.00
10646;BME280;5371;49.782;9.932;2023-02-14T02:37:19;101677.06;;;0.72;100.00
10646;BME280;5371;49.782;9.932;2023-02-14T02:40:12;101668.69;;;0.91;100.00
10646;BME280;5371;49.782;9.932;2023-02-14T02:42:49;101666.19;;;0.96;100.00
10646;BME280;5371;49.782;9.932;2023-02-14T02:45:24;101660.16;;;0.95;100.00
10646;BME280;5371;49.782;9.932;2023-02-14T02:47:59;101654.81;;;0.77;100.00
10646;BME280;5371;49.782;9.932;2023-02-14T02:50:32;101655.75;;;0.85;100.00
10646;BME280;5371;49.782;9.932;2023-02-14T02:53:28;101657.28;;;0.69;100.00
10646;BME280;5371;49.782;9.932;2023-02-14T02:56:00;101658.22;;;0.76;100.00
10646;BME280;5371;49.782;9.932;2023-02-14T02:58:51;101668.50;;;0.76;100.00
10646;BME280;5371;49.782;9.932;2023-02-14T03:01:25;101662.75;;;0.95;100.00
10646;BME280;5371;49.782;9.932;2023-02-14T03:03:57;101669.63;;;0.96;100.00
10646;BME280;5371;49.782;9.932;2023-02-14T03:06:43;101668.66;;;0.88;100.00
10646;BME280;5371;49.782;9.932;2023-02-14T03:12:30;101672.31;;;1.05;100.00
10646;BME280;5371;49.782;9.932;2023-02-14T03:15:10;101677.47;;;1.05;100.00
10646;BME280;5371;49.782;9.932;2023-02-14T03:17:48;101679.25;;;1.12;100.00
10646;BME280;5371;49.782;9.932;2023-02-14T03:20:21;101678.16;;;0.92;100.00
10646;BME280;5371;49.782;9.932;2023-02-14T03:22:51;101675.78;;;1.07;100.00
10646;BME280;5371;49.782;9.932;2023-02-14T03:25:38;101677.34;;;0.96;100.00
10646;BME280;5371;49.782;9.932;2023-02-14T03:28:13;101679.09;;;1.00;100.00
10646;BME280;5371;49.782;9.932;2023-02-14T03:30:55;101679.09;;;1.00;100.00
10646;BME280;5371;49.782;9.932;2023-02-14T03:33:28;101675.66;;;0.98;100.00
10646;BME280;5371;49.782;9.932;2023-02-14T03:36:02;101674.59;;;0.83;100.00
10646;BME280;5371;49.782;9.932;2023-02-14T03:38:33;101671.38;;;0.99;100.00
10646;BME280;5371;49.782;9.932;2023-02-14T03:41:06;101670.53;;;1.00;100.00
10646;BME280;5371;49.782;9.932;2023-02-14T03:43:36;101677.41;;;0.99;100.00
10646;BME280;5371;49.782;9.932;2023-02-14T03:46:07;101668.88;;;1.05;100.00
10646;BME280;5371;49.782;9.932;2023-02-14T03:48:37;101675.97;;;1.29;100.00
10646;BME280;5371;49.782;9.932;2023-02-14T03:51:08;101677.47;;;1.05;100.00
10646;BME280;5371;49.782;9.932;2023-02-14T03:53:39;101686.44;;;1.41;100.00
10646;BME280;5371;49.782;9.932;2023-02-14T03:56:14;101684.56;;;1.26;100.00
10646;BME280;5371;49.782;9.932;2023-02-14T03:58:43;101687.97;;;1.24;100.00
10646;BME280;5371;49.782;9.932;2023-02-14T04:01:15;101677.50;;;1.11;100.00
10646;BME280;5371;49.782;9.932;2023-02-14T04:03:43;101678.28;;;1.03;100.00
10646;BME280;5371;49.782;9.932;2023-02-14T04:06:10;101679.09;;;1.00;100.00
10646;BME280;5371;49.782;9.932;2023-02-14T04:08:37;101668.78;;;1.00;100.00
10646;BME280;5371;49.782;9.932;2023-02-14T04:11:05;101679.19;;;1.06;100.00
10646;BME280;5371;49.782;9.932;2023-02-14T04:13:34;101677.56;;;1.15;100.00
10646;BME280;5371;49.782;9.932;2023-02-14T04:16:02;101677.59;;;1.19;100.00
10646;BME280;5371;49.782;9.932;2023-02-14T04:18:29;101679.44;;;1.31;100.00
10646;BME280;5371;49.782;9.932;2023-02-14T04:21:14;101680.34;;;1.34;100.00
10646;BME280;5371;49.782;9.932;2023-02-14T04:23:41;101684.66;;;1.37;100.00
10646;BME280;5371;49.782;9.932;2023-02-14T04:26:08;101674.44;;;1.46;100.00
10646;BME280;5371;49.782;9.932;2023-02-14T04:28:36;101671.94;;;1.55;100.00
10646;BME280;5371;49.782;9.932;2023-02-14T04:31:04;101665.00;;;1.45;100.00
10646;BME280;5371;49.782;9.932;2023-02-14T04:33:33;101663.31;;;1.45;100.00
10646;BME280;5371;49.782;9.932;2023-02-14T04:36:00;101665.84;;;1.44;100.00
10646;BME280;5371;49.782;9.932;2023-02-14T04:38:27;101660.63;;;1.38;100.00
10646;BME280;5371;49.782;9.932;2023-02-14T04:40:54;101658.09;;;1.41;100.00
10646;BME280;5371;49.782;9.932;2023-02-14T04:43:21;101655.47;;;1.38;100.00
10646;BME280;5371;49.782;9.932;2023-02-14T04:45:49;101657.22;;;1.40;100.00
10646;BME280;5371;49.782;9.932;2023-02-14T04:48:16;101656.50;;;1.54;100.00
10646;BME280;5371;49.782;9.932;2023-02-14T04:50:43;101657.00;;;1.18;100.00
10646;BME280;5371;49.782;9.932;2023-02-14T04:53:10;101648.59;;;1.37;100.00
10646;BME280;5371;49.782;9.932;2023-02-14T04:55:36;101650.31;;;1.38;100.00
10646;BME280;5371;49.782;9.932;2023-02-14T04:58:03;101653.75;;;1.38;100.00
10646;BME280;5371;49.782;9.932;2023-02-14T05:00:30;101658.19;;;1.50;100.00
10646;BME280;5371;49.782;9.932;2023-02-14T05:02:59;101650.41;;;1.47;100.00
10646;BME280;5371;49.782;9.932;2023-02-14T05:05:26;101652.88;;;1.35;100.00
10646;BME280;5371;49.782;9.932;2023-02-14T05:07:53;101649.56;;;1.45;100.00
10646;BME280;5371;49.782;9.932;2023-02-14T05:10:20;101651.16;;;1.35;100.00
10646;BME280;5371;49.782;9.932;2023-02-14T05:12:47;101651.19;;;1.40;100.00
10646;BME280;5371;49.782;9.932;2023-02-14T05:15:15;101646.78;;;1.27;100.00
10646;BME280;5371;49.782;9.932;2023-02-14T05:17:42;101641.50;;;1.15;100.00
10646;BME280;5371;49.782;9.932;2023-02-14T05:20:11;101639.91;;;1.26;100.00
10646;BME280;5371;49.782;9.932;2023-02-14T05:22:38;101638.19;;;1.26;100.00
10646;BME280;5371;49.782;9.932;2023-02-14T05:25:05;101640.78;;;1.26;100.00
10646;BME280;5371;49.782;9.932;2023-02-14T05:27:32;101640.56;;;1.06;100.00
10646;BME280;5371;49.782;9.932;2023-02-14T05:29:59;101639.00;;;1.22;100.00
10646;BME280;5371;49.782;9.932;2023-02-14T05:32:26;101643.06;;;0.99;100.00
10646;BME280;5371;49.782;9.932;2023-02-14T05:34:53;101645.75;;;1.11;100.00
10646;BME280;5371;49.782;9.932;2023-02-14T05:37:22;101644.22;;;1.27;100.00
10646;BME280;5371;49.782;9.932;2023-02-14T05:39:49;101645.13;;;1.33;100.00
10646;BME280;5371;49.782;9.932;2023-02-14T05:42:16;101641.78;;;1.42;100.00
10646;BME280;5371;49.782;9.932;2023-02-14T05:44:43;101642.47;;;1.24;100.00
10646;BME280;5371;49.782;9.932;2023-02-14T05:47:10;101645.69;;;1.05;100.00
10646;BME280;5371;49.782;9.932;2023-02-14T05:49:37;101640.69;;;1.20;100.00
10646;BME280;5371;49.782;9.932;2023-02-14T05:52:05;101649.91;;;0.98;100.00
10646;BME280;5371;49.782;9.932;2023-02-14T05:54:33;101646.56;;;1.05;100.00
10646;BME280;5371;49.782;9.932;2023-02-14T05:57:00;101650.13;;;1.20;100.00
10646;BME280;5371;49.782;9.932;2023-02-14T05:59:27;101639.88;;;1.23;100.00
10646;BME280;5371;49.782;9.932;2023-02-14T06:01:54;101642.28;;;1.07;100.00
10646;BME280;5371;49.782;9.932;2023-02-14T06:04:21;101648.41;;;1.19;100.00
10646;BME280;5371;49.782;9.932;2023-02-14T06:06:48;101649.38;;;1.30;100.00
10646;BME280;5371;49.782;9.932;2023-02-14T06:09:15;101647.53;;;1.15;100.00
10646;BME280;5371;49.782;9.932;2023-02-14T06:11:44;101646.00;;;1.34;100.00
10646;BME280;5371;49.782;9.932;2023-02-14T06:14:11;101652.81;;;1.27;100.00
10646;BME280;5371;49.782;9.932;2023-02-14T06:16:38;101647.72;;;1.33;100.00
10646;BME280;5371;49.782;9.932;2023-02-14T06:19:05;101659.56;;;1.16;100.00
10646;BME280;5371;49.782;9.932;2023-02-14T06:21:32;101644.97;;;1.17;100.00
10646;BME280;5371;49.782;9.932;2023-02-14T06:23:59;101649.22;;;1.13;100.00
10646;BME280;5371;49.782;9.932;2023-02-14T06:26:26;101643.25;;;1.17;100.00
10646;BME280;5371;49.782;9.932;2023-02-14T06:28:54;101647.63;;;1.26;100.00
10646;BME280;5371;49.782;9.932;2023-02-14T06:31:22;101652.72;;;1.18;100.00
10646;BME280;5371;49.782;9.932;2023-02-14T06:33:52;101656.94;;;1.13;100.00
10646;BME280;5371;49.782;9.932;2023-02-14T06:36:20;101662.13;;;1.19;100.00
10646;BME280;5371;49.782;9.932;2023-02-14T06:38:47;101656.03;;;1.08;100.00
10646;BME280;5371;49.782;9.932;2023-02-14T06:41:15;101655.94;;;0.99;100.00
10646;BME280;5371;49.782;9.932;2023-02-14T06:43:43;101656.13;;;1.16;100.00
10646;BME280;5371;49.782;9.932;2023-02-14T06:46:14;101655.19;;;1.10;100.00
10646;BME280;5371;49.782;9.932;2023-02-14T06:48:41;101656.16;;;1.22;100.00
10646;BME280;5371;49.782;9.932;2023-02-14T06:51:08;101651.75;;;1.11;100.00
10646;BME280;5371;49.782;9.932;2023-02-14T06:53:35;101656.94;;;1.13;100.00
10646;BME280;5371;49.782;9.932;2023-02-14T06:56:03;101667.09;;;0.99;100.00
10646;BME280;5371;49.782;9.932;2023-02-14T06:58:30;101663.75;;;1.06;100.00
10646;BME280;5371;49.782;9.932;2023-02-14T07:00:57;101668.06;;;1.12;100.00
10646;BME280;5371;49.782;9.932;2023-02-14T07:03:26;101666.47;;;1.22;100.00
10646;BME280;5371;49.782;9.932;2023-02-14T07:05:53;101677.59;;;1.16;100.00
10646;BME280;5371;49.782;9.932;2023-02-14T07:08:20;101672.31;;;1.05;100.00
10646;BME280;5371;49.782;9.932;2023-02-14T07:10:47;101668.81;;;1.02;100.00
10646;BME280;5371;49.782;9.932;2023-02-14T07:13:14;101670.47;;;0.95;100.00
10646;BME280;5371;49.782;9.932;2023-02-14T07:15:41;101666.28;;;1.05;100.00
10646;BME280;5371;49.782;9.932;2023-02-14T07:18:08;101663.84;;;1.19;100.00
10646;BME280;5371;49.782;9.932;2023-02-14T07:20:37;101652.59;;;1.07;100.00
10646;BME280;5371;49.782;9.932;2023-02-14T07:23:04;101660.34;;;1.09;100.00
10646;BME280;5371;49.782;9.932;2023-02-14T07:25:31;101662.81;;;1.03;100.00
10646;BME280;5371;49.782;9.932;2023-02-14T07:27:58;101664.53;;;0.99;100.00
10646;BME280;5371;49.782;9.932;2023-02-14T07:30:26;101649.16;;;1.10;100.00
10646;BME280;5371;49.782;9.932;2023-02-14T07:32:53;101656.16;;;1.22;100.00
10646;BME280;5371;49.782;9.932;2023-02-14T07:35:20;101652.72;;;1.18;100.00
10646;BME280;5371;49.782;9.932;2023-02-14T07:37:50;101651.75;;;1.11;100.00
10646;BME280;5371;49.782;9.932;2023-02-14T07:40:17;101653.47;;;1.08;100.00
10646;BME280;5371;49.782;9.932;2023-02-14T07:42:51;101650.91;;;1.11;100.00
10646;BME280;5371;49.782;9.932;2023-02-14T07:45:21;101659.41;;;1.04;100.00
10646;BME280;5371;49.782;9.932;2023-02-14T07:47:48;101650.78;;;1.00;100.00
10646;BME280;5371;49.782;9.932;2023-02-14T07:50:16;101652.50;;;0.98;100.00
10646;BME280;5371;49.782;9.932;2023-02-14T07:52:43;101650.78;;;1.02;100.00
10646;BME280;5371;49.782;9.932;2023-02-14T07:55:11;101648.25;;;1.03;100.00
10646;BME280;5371;49.782;9.932;2023-02-14T07:57:38;101661.97;;;1.02;100.00
10646;BME280;5371;49.782;9.932;2023-02-14T08:00:07;101658.50;;;1.00;100.00
10646;BME280;5371;49.782;9.932;2023-02-14T08:02:39;101658.69;;;1.16;100.00
10646;BME280;5371;49.782;9.932;2023-02-14T08:05:07;101652.78;;;1.26;100.00
10646;BME280;5371;49.782;9.932;2023-02-14T08:07:34;101651.56;;;0.95;100.00
10646;BME280;5371;49.782;9.932;2023-02-14T08:10:01;101656.84;;;1.05;100.00
10646;BME280;5371;49.782;9.932;2023-02-14T08:12:29;101654.19;;;0.98;100.00
10646;BME280;5371;49.782;9.932;2023-02-14T08:15:14;101644.78;;;1.01;100.00
10646;BME280;5371;49.782;9.932;2023-02-14T08:17:58;101655.97;;;1.03;100.00
10646;BME280;5371;49.782;9.932;2023-02-14T08:20:25;101650.88;;;1.08;100.00
10646;BME280;5371;49.782;9.932;2023-02-14T08:22:52;101650.88;;;1.09;100.00
10646;BME280;5371;49.782;9.932;2023-02-14T08:25:19;101654.31;;;1.07;100.00
10646;BME280;5371;49.782;9.932;2023-02-14T08:27:47;101653.44;;;1.09;100.00
10646;BME280;5371;49.782;9.932;2023-02-14T08:30:15;101653.66;;;1.26;100.00
10646;BME280;5371;49.782;9.932;2023-02-14T08:32:42;101655.31;;;1.21;100.00
10646;BME280;5371;49.782;9.932;2023-02-14T08:35:09;101658.59;;;1.09;100.00
10646;BME280;5371;49.782;9.932;2023-02-14T08:37:35;101657.88;;;1.18;100.00
10646;BME280;5371;49.782;9.932;2023-02-14T08:40:03;101652.69;;;1.17;100.00
10646;BME280;5371;49.782;9.932;2023-02-14T08:42:30;101655.38;;;1.29;100.00
10646;BME280;5371;49.782;9.932;2023-02-14T08:44:59;101654.47;;;1.22;100.00
10646;BME280;5371;49.782;9.932;2023-02-14T08:47:26;101651.13;;;1.32;100.00
10646;BME280;5371;49.782;9.932;2023-02-14T08:49:53;101654.31;;;1.10;100.00
10646;BME280;5371;49.782;9.932;2023-02-14T08:52:20;101647.69;;;1.32;100.00
10646;BME280;5371;49.782;9.932;2023-02-14T08:54:47;101647.56;;;1.18;100.00
10646;BME280;5371;49.782;9.932;2023-02-14T08:57:14;101652.41;;;0.91;100.00
10646;BME280;5371;49.782;9.932;2023-02-14T08:59:41;101645.06;;;1.29;100.00
10646;BME280;5371;49.782;9.932;2023-02-14T09:02:12;101647.78;;;1.41;100.00
10646;BME280;5371;49.782;9.932;2023-02-14T09:04:39;101643.91;;;0.98;100.00
10646;BME280;5371;49.782;9.932;2023-02-14T09:07:06;101647.63;;;1.24;100.00
10646;BME280;5371;49.782;9.932;2023-02-14T09:09:33;101643.44;;;1.37;100.00
10646;BME280;5371;49.782;9.932;2023-02-14T09:12:02;101644.34;;;1.42;100.00
10646;BME280;5371;49.782;9.932;2023-02-14T09:14:29;101638.44;;;1.52;100.00
10646;BME280;5371;49.782;9.932;2023-02-14T09:16:57;101642.75;;;1.56;100.00
10646;BME280;5371;49.782;9.932;2023-02-14T09:19:27;101644.41;;;1.49;100.00
10646;BME280;5371;49.782;9.932;2023-02-14T09:21:54;101646.81;;;1.30;100.00
10646;BME280;5371;49.782;9.932;2023-02-14T09:24:21;101645.19;;;1.39;100.00
10646;BME280;5371;49.782;9.932;2023-02-14T09:26:48;101644.28;;;1.37;100.00
10646;BME280;5371;49.782;9.932;2023-02-14T09:29:15;101642.50;;;1.30;100.00
10646;BME280;5371;49.782;9.932;2023-02-14T09:31:42;101638.19;;;1.28;100.00
10646;BME280;5371;49.782;9.932;2023-02-14T09:34:09;101644.44;;;1.51;100.00
10646;BME280;5371;49.782;9.932;2023-02-14T09:36:38;101642.72;;;1.52;100.00
10646;BME280;5371;49.782;9.932;2023-02-14T09:39:05;101644.50;;;1.59;100.00
10646;BME280;5371;49.782;9.932;2023-02-14T09:42:06;101640.13;;;1.50;100.00
10646;BME280;5371;49.782;9.932;2023-02-14T09:44:38;101645.13;;;1.32;100.00
10646;BME280;5371;49.782;9.932;2023-02-14T09:47:18;101641.78;;;1.42;100.00
10646;BME280;5371;49.782;9.932;2023-02-14T09:49:47;101643.59;;;1.52;100.00
10646;BME280;5371;49.782;9.932;2023-02-14T09:52:20;101644.97;;;1.20;100.00
10646;BME280;5371;49.782;9.932;2023-02-14T09:54:53;101638.28;;;1.37;100.00
10646;BME280;5371;49.782;9.932;2023-02-14T09:57:32;101638.75;;;1.88;100.00
10646;BME280;5371;49.782;9.932;2023-02-14T10:00:06;101632.75;;;1.94;100.00
10646;BME280;5371;49.782;9.932;2023-02-14T10:02:47;101628.38;;;1.81;100.00
10646;BME280;5371;49.782;9.932;2023-02-14T10:05:21;101626.63;;;1.78;100.00
10646;BME280;5371;49.782;9.932;2023-02-14T10:07:55;101631.09;;;2.04;100.00
10646;BME280;5371;49.782;9.932;2023-02-14T10:10:27;101635.53;;;2.23;100.00
10646;BME280;5371;49.782;9.932;2023-02-14T10:13:01;101633.81;;;2.22;100.00
10646;BME280;5371;49.782;9.932;2023-02-14T10:15:36;101635.28;;;1.86;100.00
10646;BME280;5371;49.782;9.932;2023-02-14T10:18:09;101636.34;;;2.19;100.00
10646;BME280;5371;49.782;9.932;2023-02-14T10:20:41;101632.88;;;2.09;100.00
10646;BME280;5371;49.782;9.932;2023-02-14T10:23:21;101629.44;;;2.07;100.00
10646;BME280;5371;49.782;9.932;2023-02-14T10:26:01;101639.00;;;2.25;100.00
10646;BME280;5371;49.782;9.932;2023-02-14T10:28:31;101638.16;;;2.26;100.00
10646;BME280;5371;49.782;9.932;2023-02-14T10:31:10;101631.72;;;1.69;100.00
10646;BME280;5371;49.782;9.932;2023-02-14T10:33:42;101626.44;;;1.56;100.00
10646;BME280;5371;49.782;9.932;2023-02-14T10:36:27;101623.28;;;1.93;100.00
10646;BME280;5371;49.782;9.932;2023-02-14T10:39:04;101625.16;;;2.14;100.00
10646;BME280;5371;49.782;9.932;2023-02-14T10:41:40;101618.34;;;2.25;100.00
10646;BME280;5371;49.782;9.932;2023-02-14T10:44:19;101620.69;;;1.88;100.00
10646;BME280;5371;49.782;9.932;2023-02-14T10:46:55;101619.84;;;1.93;100.00
10646;BME280;5371;49.782;9.932;2023-02-14T10:49:31;101620.72;;;1.95;100.00
10646;BME280;5371;49.782;9.932;2023-02-14T10:52:06;101619.09;;;2.10;100.00
10646;BME280;5371;49.782;9.932;2023-02-14T10:54:41;101608.72;;;1.97;100.00
10646;BME280;5371;49.782;9.932;2023-02-14T10:57:12;101604.38;;;1.93;100.00
10646;BME280;5371;49.782;9.932;2023-02-14T10:59:46;101604.53;;;2.14;100.00
10646;BME280;5371;49.782;9.932;2023-02-14T11:02:17;101607.94;;;2.11;100.00
10646;BME280;5371;49.782;9.932;2023-02-14T11:04:47;101615.59;;;2.01;100.00
10646;BME280;5371;49.782;9.932;2023-02-14T11:07:17;101609.72;;;2.23;100.00
10646;BME280;5371;49.782;9.932;2023-02-14T11:09:46;101610.66;;;2.37;100.00
10646;BME280;5371;49.782;9.932;2023-02-14T11:12:33;101601.84;;;1.97;100.00
10646;BME280;5371;49.782;9.932;2023-02-14T11:15:19;101601.69;;;1.73;100.00
10646;BME280;5371;49.782;9.932;2023-02-14T11:17:47;101592.38;;;1.98;100.00
10646;BME280;5371;49.782;9.932;2023-02-14T11:20:22;101580.84;;;1.50;100.00
10646;BME280;5371;49.782;9.932;2023-02-14T11:22:50;101579.91;;;1.36;100.00
10646;BME280;5371;49.782;9.932;2023-02-14T11:25:23;101579.16;;;1.50;100.00
10646;BME280;5371;49.782;9.932;2023-02-14T11:28:01;101575.66;;;1.47;100.00
10646;BME280;5371;49.782;9.932;2023-02-14T11:30:32;101567.28;;;1.69;100.00
10646;BME280;5371;49.782;9.932;2023-02-14T11:33:00;101563.16;;;1.99;100.00
10646;BME280;5371;49.782;9.932;2023-02-14T11:35:30;101562.34;;;2.10;100.00
10646;BME280;5371;49.782;9.932;2023-02-14T11:38:01;101560.63;;;2.06;100.00
10646;BME280;5371;49.782;9.932;2023-02-14T11:40:32;101557.28;;;2.25;100.00
10646;BME280;5371;49.782;9.932;2023-02-14T11:43:00;101556.31;;;2.04;100.00
10646;BME280;5371;49.782;9.932;2023-02-14T11:45:45;101559.75;;;2.00;100.00
10646;BME280;5371;49.782;9.932;2023-02-14T11:48:18;101553.81;;;2.17;100.00
10646;BME280;5371;49.782;9.932;2023-02-14T11:50:54;101549.59;;;2.39;100.00
10646;BME280;5371;49.782;9.932;2023-02-14T11:53:24;101549.66;;;2.45;100.00
10646;BME280;5371;49.782;9.932;2023-02-14T11:55:55;101546.22;;;2.52;100.00
10646;BME280;5371;49.782;9.932;2023-02-14T11:58:32;101545.38;;;2.61;100.00
10646;BME280;5371;49.782;9.932;2023-02-14T12:01:02;101541.09;;;2.69;100.00
10646;BME280;5371;49.782;9.932;2023-02-14T12:03:36;101530.78;;;2.74;100.00
10646;BME280;5371;49.782;9.932;2023-02-14T12:06:04;101526.53;;;2.89;100.00
10646;BME280;5371;49.782;9.932;2023-02-14T12:08:32;101524.81;;;2.97;100.00
10646;BME280;5371;49.782;9.932;2023-02-14T12:11:05;101527.38;;;2.93;100.00
10646;BME280;5371;49.782;9.932;2023-02-14T12:13:51;101523.94;;;2.89;100.00
10646;BME280;5371;49.782;9.932;2023-02-14T12:16:22;101516.22;;;3.08;100.00
10646;BME280;5371;49.782;9.932;2023-02-14T12:18:55;101514.38;;;2.52;100.00
10646;BME280;5371;49.782;9.932;2023-02-14T12:21:40;101518.78;;;2.82;100.00
10646;BME280;5371;49.782;9.932;2023-02-14T12:24:17;101516.16;;;2.83;100.00
10646;BME280;5371;49.782;9.932;2023-02-14T12:26:54;101516.81;;;2.14;100.00
10646;BME280;5371;49.782;9.932;2023-02-14T12:29:26;101506.69;;;2.72;100.00
10646;BME280;5371;49.782;9.932;2023-02-14T12:31:59;101512.75;;;2.90;100.00
10646;BME280;5371;49.782;9.932;2023-02-14T12:34:27;101506.72;;;2.87;100.00
10646;BME280;5371;49.782;9.932;2023-02-14T12:37:08;101516.06;;;2.42;100.00
10646;BME280;5371;49.782;9.932;2023-02-14T12:39:45;101502.38;;;2.68;100.00
10646;BME280;5371;49.782;9.932;2023-02-14T12:42:25;101504.16;;;2.97;100.00
10646;BME280;5371;49.782;9.932;2023-02-14T12:45:03;101501.50;;;2.75;100.00
10646;BME280;5371;49.782;9.932;2023-02-14T12:47:42;101489.50;;;2.86;100.00
10646;BME280;5371;49.782;9.932;2023-02-14T12:50:31;101494.66;;;2.78;100.00
10646;BME280;5371;49.782;9.932;2023-02-14T12:53:38;101493.78;;;2.82;100.00
10646;BME280;5371;49.782;9.932;2023-02-14T12:56:14;101489.47;;;2.77;100.00
10646;BME280;5371;49.782;9.932;2023-02-14T12:58:55;101487.75;;;2.79;100.00
10646;BME280;5371;49.782;9.932;2023-02-14T13:01:34;101490.31;;;2.54;100.00
10646;BME280;5371;49.782;9.932;2023-02-14T13:04:21;101485.06;;;2.32;100.00
10646;BME280;5371;49.782;9.932;2023-02-14T13:06:57;101485.06;;;2.38;100.00
10646;BME280;5371;49.782;9.932;2023-02-14T13:09:34;101470.53;;;2.72;100.00
10646;BME280;5371;49.782;9.932;2023-02-14T13:12:14;101469.72;;;2.98;100.00
10646;BME280;5371;49.782;9.932;2023-02-14T13:14:55;101472.28;;;2.82;100.00
10646;BME280;5371;49.782;9.932;2023-02-14T13:17:30;101475.69;;;2.75;100.00
10646;BME280;5371;49.782;9.932;2023-02-14T13:20:14;101472.22;;;2.57;100.00
10646;BME280;5371;49.782;9.932;2023-02-14T13:22:46;101465.34;;;2.66;100.00
10646;BME280;5371;49.782;9.932;2023-02-14T13:25:20;101463.66;;;2.69;100.00
10646;BME280;5371;49.782;9.932;2023-02-14T13:27:55;101461.94;;;2.85;100.00
10646;BME280;5371;49.782;9.932;2023-02-14T13:30:27;101456.78;;;3.03;100.00
10646;BME280;5371;49.782;9.932;2023-02-14T13:32:59;101460.22;;;3.02;100.00